Pagina principale
METAR-TAF:

METAR-TAF

Aeroporti :

Aeroporto di Spalato-Castelli

Spalato, Croazia

latitudine: 43-32N, longitudine: 016-18E, altezza: 19 m

Osservazione

Il bollettino è stato emesso 20 minuti fa, alle 03:00 UTC
Vento 5 kt da nord/nord-ovest
Temperature 9°C
Umidità 81%
Pressione 1020 hPa
Visibilità 10 km o più
nessuna nube inferiore a 1500 m e nessun cumulonembo

METAR: LDSP 240300Z AUTO 34005KT CAVOK 09/06 Q1020 NOSIG

Ora: 04:20 (03:20 UTC)

Previsione

Il bollettino è stato emesso 3 ore e 55 minuti fa, alle 23:25 UTC
Previsione valida dal 24 alle 00 UTC al 25 alle 00 UTC
Vento 2 kt da direzioni variabili
Visibilità 10 km o più
nessuna nube inferiore a 1500 m e nessun cumulonembo
Probabilità 40% :
Temporaneamente
dal 24 alle 11 UTC al 24 alle 16 UTC
Vento 6 kt da sud-ovest

TAF: LDSP 232325Z 2400/2500 VRB02KT CAVOK TX17/2413Z TN07/2405Z PROB40 TEMPO 2411/2416 23006KT

Osservazioni e previsioni meteorologiche di più di 4000 aeroporti (messaggi METAR e TAF).

Le stazioni disponibili sono rappresentate dai dischi gialli e rossi sulla carta.

Puntare il mouse per vedere il nome della stazione.

Clicca sopra per visualizzare le osservazioni e previsioni meteorologiche.

Per cambiare la mappa : fare clic sui pulsanti verdi con una croce nera per ingrandire, il pulsante verde con un trattino per diminuire, o sulla freccia verde per le mappe adiacenti.


METAR-TAF: